MiSS Rachel — WDC2593 — position and weather

sailwx.info

Track history (hours):
 
Tides and Currents Weather Stations Pressure Air Temp Water Temp Dewpoint Dewpoint Depression Visibility Wind Speed Wind Dir Waves Ship Positions

MiSS Rachel

Owner: Kirby Inland Marine LP, Houston, TX. More information available from US FCC via Universal Licensing System and Coast Guard Vessel Documentation Center.

Last reported at 2017-Dec-30 02:45 UTC. Time now 2018-Jan-23 04:26 UTC.
Position N 27°52' W 097°03'.
Warning: this ship's position is 24 days out of date.

Length 97 m.

Type: . MMSI: 366995370.

Date/timePositionNaut miles runAvg speedWind from/ knotsBaromVisibWave heightAir tempDewpointWater temp
2017-Dec-30 02:45N 27°52' W 097°03'0 0.0
2017-Dec-30 02:29N 27°52' W 097°03'0 0.0
2017-Dec-30 02:00N 27°52' W 097°03'0 0.0
2017-Dec-30 01:30N 27°52' W 097°03'0 0.0
2017-Dec-30 01:00N 27°52' W 097°03'0 0.0
2017-Dec-30 00:29N 27°52' W 097°03'0 0.0
2017-Dec-29 23:59N 27°52' W 097°03'0 0.0
2017-Dec-29 23:29N 27°52' W 097°03'0 0.0
2017-Dec-29 23:00N 27°52' W 097°03'0 0.0
2017-Dec-29 22:30N 27°52' W 097°03'0 0.0
2017-Dec-29 21:59N 27°52' W 097°03'0 0.0
2017-Dec-29 21:29N 27°52' W 097°03'0 0.0
2017-Dec-29 20:59N 27°52' W 097°03'0 0.0
2017-Dec-29 20:30N 27°52' W 097°03'1 1.7
2017-Dec-29 20:00N 27°53' W 097°03'2 4.4
2017-Dec-29 19:30N 27°55' W 097°03'3 5.0
2017-Dec-29 19:00N 27°58' W 097°03'3 5.2
2017-Dec-29 18:29N 28°00' W 097°02'3 5.5
2017-Dec-29 17:59N 28°02' W 096°60'3 5.4
2017-Dec-29 17:30N 28°04' W 096°58'3 5.3
2017-Dec-29 17:00N 28°06' W 096°56'5 5.2
2017-Dec-29 16:05N 28°10' W 096°53'1 6.6
2017-Dec-29 16:00N 28°10' W 096°52'3 6.4
2017-Dec-29 15:29N 28°12' W 096°49'3 5.2
2017-Dec-29 14:58N 28°14' W 096°47'19 0.9
2017-Dec-28 18:37N 28°00' W 097°02'2 5.2
2017-Dec-28 18:18N 27°59' W 097°03'1 5.0
2017-Dec-28 18:00N 27°57' W 097°03'3 5.1
2017-Dec-28 17:29N 27°55' W 097°03'2 4.4
2017-Dec-28 16:59N 27°53' W 097°03'2 4.5
2017-Dec-28 16:30N 27°51' W 097°04'3 5.7
2017-Dec-28 15:59N 27°50' W 097°07'3 6.0
2017-Dec-28 15:30N 27°49' W 097°10'4 6.2
2017-Dec-28 14:54N 27°49' W 097°14'2 5.7
2017-Dec-28 14:30N 27°49' W 097°17'3 5.6
2017-Dec-28 14:00N 27°49' W 097°20'3 5.5
2017-Dec-28 13:29N 27°49' W 097°23'1 0.8
2017-Dec-28 12:38N 27°49' W 097°24'0 0.0
2017-Dec-28 06:04N 27°49' W 097°24'0 0.0
2017-Dec-28 05:43N 27°49' W 097°24'0 0.0
2017-Dec-28 03:36N 27°49' W 097°24'0 0.0
2017-Dec-28 03:20N 27°49' W 097°24'0 0.0
2017-Dec-28 02:58N 27°49' W 097°24'0 0.0
2017-Dec-28 02:27N 27°49' W 097°24'0 0.0
2017-Dec-28 01:59N 27°49' W 097°24'0 0.0
2017-Dec-28 01:25N 27°49' W 097°24'0 0.0
2017-Dec-28 00:53N 27°49' W 097°24'0 0.0
2017-Dec-28 00:26N 27°49' W 097°24'0 0.0
2017-Dec-27 23:59N 27°49' W 097°24'0 0.0
2017-Dec-27 20:53N 27°49' W 097°24'3 4.7
2017-Dec-27 20:19N 27°49' W 097°27'1 0.3
2017-Dec-27 17:23N 27°49' W 097°28'  
2017-Dec-20 11:24N 29°10' W 095°06'0 0.0
2017-Dec-20 11:00N 29°10' W 095°06'  
Track history (hours):
 
Tides and Currents Weather Stations Pressure Air Temp Water Temp Dewpoint Dewpoint Depression Visibility Wind Speed Wind Dir Waves Ship Positions

MiSS Rachel

Owner: Kirby Inland Marine LP, Houston, TX. More information available from US FCC via Universal Licensing System and Coast Guard Vessel Documentation Center.

Last reported at 2017-Dec-30 02:45 UTC. Time now 2018-Jan-23 04:26 UTC.
Position N 27°52' W 097°03'.
Warning: this ship's position is 24 days out of date.

Length 97 m.

Type: . MMSI: 366995370.

Date/timePositionNaut miles runAvg speedWind from/ knotsBaromVisibWave heightAir tempDewpointWater temp
2017-Dec-30 02:45N 27°52' W 097°03'0 0.0
2017-Dec-30 02:29N 27°52' W 097°03'0 0.0
2017-Dec-30 02:00N 27°52' W 097°03'0 0.0
2017-Dec-30 01:30N 27°52' W 097°03'0 0.0
2017-Dec-30 01:00N 27°52' W 097°03'0 0.0
2017-Dec-30 00:29N 27°52' W 097°03'0 0.0
2017-Dec-29 23:59N 27°52' W 097°03'0 0.0
2017-Dec-29 23:29N 27°52' W 097°03'0 0.0
2017-Dec-29 23:00N 27°52' W 097°03'0 0.0
2017-Dec-29 22:30N 27°52' W 097°03'0 0.0
2017-Dec-29 21:59N 27°52' W 097°03'0 0.0
2017-Dec-29 21:29N 27°52' W 097°03'0 0.0
2017-Dec-29 20:59N 27°52' W 097°03'0 0.0
2017-Dec-29 20:30N 27°52' W 097°03'1 1.7
2017-Dec-29 20:00N 27°53' W 097°03'2 4.4
2017-Dec-29 19:30N 27°55' W 097°03'3 5.0
2017-Dec-29 19:00N 27°58' W 097°03'3 5.2
2017-Dec-29 18:29N 28°00' W 097°02'3 5.5
2017-Dec-29 17:59N 28°02' W 096°60'3 5.4
2017-Dec-29 17:30N 28°04' W 096°58'3 5.3
2017-Dec-29 17:00N 28°06' W 096°56'5 5.2
2017-Dec-29 16:05N 28°10' W 096°53'1 6.6
2017-Dec-29 16:00N 28°10' W 096°52'3 6.4
2017-Dec-29 15:29N 28°12' W 096°49'3 5.2
2017-Dec-29 14:58N 28°14' W 096°47'19 0.9
2017-Dec-28 18:37N 28°00' W 097°02'2 5.2
2017-Dec-28 18:18N 27°59' W 097°03'1 5.0
2017-Dec-28 18:00N 27°57' W 097°03'3 5.1
2017-Dec-28 17:29N 27°55' W 097°03'2 4.4
2017-Dec-28 16:59N 27°53' W 097°03'2 4.5
2017-Dec-28 16:30N 27°51' W 097°04'3 5.7
2017-Dec-28 15:59N 27°50' W 097°07'3 6.0
2017-Dec-28 15:30N 27°49' W 097°10'4 6.2
2017-Dec-28 14:54N 27°49' W 097°14'2 5.7
2017-Dec-28 14:30N 27°49' W 097°17'3 5.6
2017-Dec-28 14:00N 27°49' W 097°20'3 5.5
2017-Dec-28 13:29N 27°49' W 097°23'1 0.8
2017-Dec-28 12:38N 27°49' W 097°24'0 0.0
2017-Dec-28 06:04N 27°49' W 097°24'0 0.0
2017-Dec-28 05:43N 27°49' W 097°24'0 0.0
2017-Dec-28 03:36N 27°49' W 097°24'0 0.0
2017-Dec-28 03:20N 27°49' W 097°24'0 0.0
2017-Dec-28 02:58N 27°49' W 097°24'0 0.0
2017-Dec-28 02:27N 27°49' W 097°24'0 0.0
2017-Dec-28 01:59N 27°49' W 097°24'0 0.0
2017-Dec-28 01:25N 27°49' W 097°24'0 0.0
2017-Dec-28 00:53N 27°49' W 097°24'0 0.0
2017-Dec-28 00:26N 27°49' W 097°24'0 0.0
2017-Dec-27 23:59N 27°49' W 097°24'0 0.0
2017-Dec-27 20:53N 27°49' W 097°24'3 4.7
2017-Dec-27 20:19N 27°49' W 097°27'1 0.3
2017-Dec-27 17:23N 27°49' W 097°28'  
2017-Dec-20 11:24N 29°10' W 095°06'0 0.0
2017-Dec-20 11:00N 29°10' W 095°06'  

Dump ship's entire track history